createdAt,value
2023-03-27T00:03:00.037Z,4.85
2023-03-27T00:06:09.247Z,5.15
2023-03-27T00:09:16.318Z,5.19
2023-03-27T00:12:22.378Z,5.31
2023-03-27T00:15:28.512Z,5.57
2023-03-27T00:18:36.584Z,5.35
2023-03-27T00:21:45.082Z,5.06
2023-03-27T00:24:51.568Z,5.14
2023-03-27T00:27:59.744Z,5.17
2023-03-27T00:31:10.901Z,5.70
2023-03-27T00:34:18.393Z,5.63
2023-03-27T00:37:24.311Z,5.63
2023-03-27T00:40:30.903Z,5.29
2023-03-27T00:43:38.419Z,5.30
2023-03-27T00:46:46.118Z,4.15
2023-03-27T00:49:54.263Z,4.08
2023-03-27T00:53:05.804Z,4.90
2023-03-27T00:56:13.731Z,5.24
2023-03-27T00:59:22.555Z,5.26
2023-03-27T01:02:29.227Z,4.87
2023-03-27T01:05:38.360Z,4.07
2023-03-27T01:08:46.320Z,4.24
2023-03-27T01:12:07.388Z,4.19
2023-03-27T01:15:33.540Z,4.78
2023-03-27T01:18:53.474Z,4.76
2023-03-27T01:22:40.907Z,4.22
2023-03-27T01:26:10.390Z,4.79
2023-03-27T01:29:23.253Z,4.67
2023-03-27T01:33:05.958Z,4.40
2023-03-27T01:36:45.205Z,4.74
2023-03-27T01:39:58.924Z,4.76
2023-03-27T01:43:12.943Z,4.78
2023-03-27T01:46:24.459Z,3.89
2023-03-27T01:49:35.992Z,2.51
2023-03-27T01:52:46.051Z,3.04
2023-03-27T01:55:58.322Z,3.83
2023-03-27T01:59:08.966Z,3.52
2023-03-27T02:02:20.417Z,3.82
2023-03-27T02:05:31.903Z,3.86
2023-03-27T02:08:43.892Z,3.73
2023-03-27T02:11:57.861Z,4.05
2023-03-27T02:15:23.862Z,3.00
2023-03-27T02:18:36.128Z,2.78
2023-03-27T02:21:42.271Z,3.35
2023-03-27T02:24:49.160Z,3.28
2023-03-27T02:28:09.557Z,3.86
2023-03-27T02:31:31.640Z,2.87
2023-03-27T02:35:02.940Z,4.06
2023-03-27T02:38:17.588Z,3.64
2023-03-27T02:41:30.780Z,2.44
2023-03-27T02:44:47.592Z,2.79
2023-03-27T02:48:00.639Z,3.03
2023-03-27T02:51:13.624Z,3.27
2023-03-27T02:54:27.320Z,3.46
2023-03-27T02:57:39.568Z,3.59
2023-03-27T03:00:52.183Z,3.17
2023-03-27T03:04:02.009Z,3.61
2023-03-27T03:07:08.285Z,3.26
2023-03-27T03:10:16.312Z,3.49
2023-03-27T03:13:22.586Z,3.91
2023-03-27T03:16:30.413Z,2.90
2023-03-27T03:19:37.227Z,3.22
2023-03-27T03:22:43.443Z,3.73
2023-03-27T03:25:52.770Z,3.83
2023-03-27T03:29:00.292Z,3.78
2023-03-27T03:32:09.428Z,3.04
2023-03-27T03:35:15.862Z,2.94
2023-03-27T03:38:25.130Z,2.84
2023-03-27T03:41:31.386Z,3.18
2023-03-27T03:44:38.295Z,3.26
2023-03-27T03:47:46.240Z,3.47
2023-03-27T03:50:52.470Z,3.38
2023-03-27T03:53:58.909Z,3.77
2023-03-27T03:57:05.383Z,3.56
2023-03-27T04:00:13.445Z,2.78
2023-03-27T04:03:21.351Z,2.42
2023-03-27T04:06:31.194Z,2.45
2023-03-27T04:09:37.763Z,2.17
2023-03-27T04:12:48.436Z,2.65
2023-03-27T04:15:55.566Z,2.72
2023-03-27T04:19:03.226Z,2.95
2023-03-27T04:22:09.355Z,2.83
2023-03-27T04:25:17.432Z,3.25
2023-03-27T04:28:23.747Z,3.09
2023-03-27T04:31:30.500Z,3.56
2023-03-27T04:34:40.612Z,2.70
2023-03-27T04:37:48.580Z,2.32
2023-03-27T04:40:54.486Z,3.02
2023-03-27T04:44:00.597Z,3.44
2023-03-27T04:47:08.775Z,3.83
2023-03-27T04:50:17.418Z,3.47
2023-03-27T04:53:23.534Z,3.01
2023-03-27T04:56:30.991Z,3.11
2023-03-27T04:59:37.544Z,3.29
2023-03-27T05:02:45.021Z,2.62
2023-03-27T05:05:52.751Z,2.12
2023-03-27T05:08:59.210Z,2.86
2023-03-27T05:12:05.757Z,2.82
2023-03-27T05:15:13.364Z,3.42
2023-03-27T05:18:19.736Z,3.35
2023-03-27T05:21:27.396Z,2.60
2023-03-27T05:24:34.112Z,3.14
2023-03-27T05:27:45.957Z,3.35
2023-03-27T05:30:53.790Z,3.17
2023-03-27T05:34:00.331Z,3.08
2023-03-27T05:37:08.187Z,3.53
2023-03-27T05:40:16.381Z,4.25
2023-03-27T05:43:22.827Z,3.94
2023-03-27T05:46:29.478Z,4.17
2023-03-27T05:49:36.004Z,4.19
2023-03-27T05:52:44.145Z,4.91
2023-03-27T05:55:50.179Z,4.63
2023-03-27T05:59:09.596Z,4.81
2023-03-27T06:02:20.993Z,4.54
2023-03-27T06:05:29.965Z,5.41
2023-03-27T06:08:37.848Z,5.94
2023-03-27T06:11:44.977Z,6.36
2023-03-27T06:14:51.556Z,6.94
2023-03-27T06:17:57.844Z,6.81
2023-03-27T06:21:04.668Z,6.95
2023-03-27T06:24:12.389Z,7.31
2023-03-27T06:27:18.493Z,7.07
2023-03-27T06:30:26.102Z,7.35
2023-03-27T06:33:32.279Z,8.38
2023-03-27T06:36:38.520Z,7.67
2023-03-27T06:39:46.023Z,8.29
2023-03-27T06:42:53.650Z,8.38
2023-03-27T06:46:00.290Z,8.30
2023-03-27T06:49:06.213Z,9.13
2023-03-27T06:52:12.267Z,9.93
2023-03-27T06:55:21.162Z,9.62
2023-03-27T06:58:27.746Z,10.69
2023-03-27T07:01:34.024Z,11.66
2023-03-27T07:04:41.716Z,11.45
2023-03-27T07:07:49.424Z,10.88
2023-03-27T07:11:11.701Z,11.43
2023-03-27T07:14:18.780Z,11.41
2023-03-27T07:17:28.007Z,11.81
2023-03-27T07:20:38.453Z,11.70
2023-03-27T07:23:45.736Z,11.64
2023-03-27T07:26:53.705Z,12.01
2023-03-27T07:30:01.553Z,12.70
2023-03-27T07:33:09.646Z,12.48
2023-03-27T07:36:16.307Z,12.39
2023-03-27T07:39:22.696Z,13.84
2023-03-27T07:42:30.680Z,13.85
2023-03-27T07:45:37.113Z,14.03
2023-03-27T07:48:43.540Z,14.63
2023-03-27T07:51:49.548Z,13.66
2023-03-27T07:54:56.976Z,14.03
2023-03-27T07:58:07.126Z,14.76
2023-03-27T08:01:13.707Z,14.57
2023-03-27T08:04:19.880Z,15.06
2023-03-27T08:07:26.009Z,14.91
2023-03-27T08:10:32.411Z,14.61
2023-03-27T08:13:41.069Z,14.69
2023-03-27T08:16:46.989Z,14.56
2023-03-27T08:19:53.731Z,13.91
2023-03-27T08:23:00.898Z,14.03
2023-03-27T08:26:07.897Z,14.17
2023-03-27T08:29:15.315Z,13.85
2023-03-27T08:32:21.485Z,14.09
2023-03-27T08:35:27.867Z,14.05
2023-03-27T08:38:34.249Z,13.92
2023-03-27T08:41:51.208Z,14.05
2023-03-27T08:45:14.824Z,13.85
2023-03-27T08:48:24.381Z,13.58
2023-03-27T08:51:35.254Z,13.76
2023-03-27T08:54:43.145Z,13.70
2023-03-27T08:57:51.301Z,13.72
2023-03-27T09:01:07.140Z,13.97
2023-03-27T09:04:22.941Z,14.36
2023-03-27T09:07:36.206Z,14.49
2023-03-27T09:10:50.128Z,14.53
2023-03-27T09:13:56.521Z,14.27
2023-03-27T09:17:08.347Z,14.00
2023-03-27T09:20:20.520Z,14.04
2023-03-27T09:23:31.537Z,13.89
2023-03-27T09:26:39.169Z,14.09
2023-03-27T09:29:45.658Z,14.03
2023-03-27T09:32:56.720Z,14.29
2023-03-27T09:36:02.972Z,14.33
2023-03-27T09:39:13.748Z,14.28
2023-03-27T09:42:25.373Z,14.02
2023-03-27T09:45:32.325Z,14.05
2023-03-27T09:48:47.057Z,14.72
2023-03-27T09:51:54.705Z,15.33
2023-03-27T09:55:03.025Z,14.77
2023-03-27T09:58:16.550Z,14.89
2023-03-27T10:01:30.907Z,14.93
2023-03-27T10:04:38.865Z,15.18
2023-03-27T10:07:46.049Z,16.06
2023-03-27T10:10:57.900Z,16.49
2023-03-27T10:14:13.640Z,16.82
2023-03-27T10:17:27.050Z,17.19
2023-03-27T10:20:35.093Z,16.12
2023-03-27T10:23:44.275Z,16.00
2023-03-27T10:26:53.602Z,18.24
2023-03-27T10:30:00.007Z,18.97
2023-03-27T10:33:07.436Z,19.42
2023-03-27T10:36:15.154Z,19.10
2023-03-27T10:39:21.633Z,19.44
2023-03-27T10:42:29.309Z,19.94
2023-03-27T10:45:46.543Z,20.10
2023-03-27T10:49:00.512Z,19.77
2023-03-27T10:52:19.460Z,20.64
2023-03-27T10:55:45.078Z,21.15
2023-03-27T10:58:54.486Z,20.82
2023-03-27T11:05:17.612Z,21.54
2023-03-27T11:08:33.364Z,21.69
2023-03-27T11:11:44.478Z,21.54
2023-03-27T11:14:55.388Z,19.79
2023-03-27T11:18:06.314Z,19.25
2023-03-27T11:21:18.108Z,18.51
2023-03-27T11:24:32.500Z,19.10
2023-03-27T11:27:43.274Z,19.75
2023-03-27T11:30:53.152Z,19.44
2023-03-27T11:34:06.260Z,17.96
2023-03-27T11:37:21.583Z,17.68
2023-03-27T11:40:35.130Z,17.54
2023-03-27T11:43:41.896Z,17.04
2023-03-27T11:47:07.515Z,16.86
2023-03-27T11:50:26.232Z,16.77
2023-03-27T11:53:46.823Z,16.63
2023-03-27T11:56:55.562Z,16.00
2023-03-27T12:00:17.828Z,15.84
2023-03-27T12:04:01.254Z,15.27
2023-03-27T12:07:34.040Z,15.50
2023-03-27T12:10:43.625Z,15.04
2023-03-27T12:14:17.560Z,14.92
2023-03-27T12:17:44.507Z,14.80
2023-03-27T12:21:04.743Z,14.76
2023-03-27T12:24:22.555Z,14.49
2023-03-27T12:27:49.221Z,13.38
2023-03-27T12:31:02.194Z,12.03
2023-03-27T12:34:15.614Z,11.54
2023-03-27T12:37:27.401Z,10.89
2023-03-27T12:40:39.639Z,10.87
2023-03-27T12:43:47.413Z,10.82
2023-03-27T12:47:18.694Z,10.43
2023-03-27T12:50:29.497Z,10.27
2023-03-27T12:53:50.812Z,9.53
2023-03-27T12:57:05.738Z,9.36
2023-03-27T13:00:22.295Z,9.05
2023-03-27T13:03:57.701Z,8.80
2023-03-27T13:07:12.577Z,8.63
2023-03-27T13:10:36.598Z,8.22
2023-03-27T13:14:11.991Z,8.30
2023-03-27T13:17:43.536Z,7.43
2023-03-27T13:21:02.047Z,7.52
2023-03-27T13:24:27.493Z,6.94
2023-03-27T13:27:48.388Z,6.55
2023-03-27T13:30:56.625Z,6.58
2023-03-27T13:34:14.294Z,7.10
2023-03-27T13:37:48.341Z,7.12
2023-03-27T13:40:54.748Z,7.04
2023-03-27T13:44:02.304Z,6.96
2023-03-27T13:47:26.518Z,7.09
2023-03-27T13:50:54.122Z,7.27
2023-03-27T13:54:48.875Z,7.45
2023-03-27T13:58:16.255Z,7.42
2023-03-27T14:01:35.093Z,7.37
2023-03-27T14:04:57.461Z,7.74
2023-03-27T14:08:33.936Z,8.29
2023-03-27T14:11:57.686Z,8.16
2023-03-27T14:15:20.859Z,8.37
2023-03-27T14:19:02.689Z,8.44
2023-03-27T14:22:15.578Z,8.59
2023-03-27T14:25:25.517Z,8.10
2023-03-27T14:28:46.887Z,8.69
2023-03-27T14:31:53.170Z,8.43
2023-03-27T14:35:04.645Z,8.10
2023-03-27T14:38:22.838Z,7.93
2023-03-27T14:41:29.487Z,8.09
2023-03-27T14:44:37.105Z,8.29
2023-03-27T14:47:43.262Z,8.57
2023-03-27T14:50:53.330Z,8.58
2023-03-27T14:54:05.683Z,8.95
2023-03-27T14:57:14.726Z,8.80
2023-03-27T15:00:25.870Z,8.83
2023-03-27T15:03:35.433Z,9.18
2023-03-27T15:06:41.995Z,8.60
2023-03-27T15:09:48.434Z,9.08
2023-03-27T15:12:55.940Z,8.95
2023-03-27T15:16:06.726Z,8.82
2023-03-27T15:19:27.256Z,8.84
2023-03-27T15:22:36.530Z,8.49
2023-03-27T15:25:48.545Z,8.26
2023-03-27T15:29:04.204Z,8.74
2023-03-27T15:32:15.008Z,8.72
2023-03-27T15:35:34.742Z,8.57
2023-03-27T15:38:41.251Z,9.25
2023-03-27T15:41:52.183Z,9.34
2023-03-27T15:44:59.516Z,9.20
2023-03-27T15:48:17.838Z,9.47
2023-03-27T15:51:31.865Z,9.39
2023-03-27T15:54:54.138Z,9.11
2023-03-27T15:58:02.116Z,9.15
2023-03-27T16:01:18.955Z,8.90
2023-03-27T16:04:35.388Z,8.92
2023-03-27T16:07:47.294Z,8.91
2023-03-27T16:10:55.058Z,9.10
2023-03-27T16:14:02.091Z,8.57
2023-03-27T16:17:34.265Z,8.55
2023-03-27T16:20:42.333Z,8.43
2023-03-27T16:23:48.312Z,8.28
2023-03-27T16:26:55.032Z,8.46
2023-03-27T16:30:01.456Z,8.40
2023-03-27T16:33:16.276Z,8.30
2023-03-27T16:36:28.877Z,8.42
2023-03-27T16:39:35.027Z,8.66
2023-03-27T16:42:41.600Z,8.57
2023-03-27T16:45:48.063Z,8.42
2023-03-27T16:48:55.218Z,8.41
2023-03-27T16:52:03.416Z,7.96
2023-03-27T16:55:13.062Z,7.87
2023-03-27T16:58:19.164Z,7.84
2023-03-27T17:01:25.724Z,7.96
2023-03-27T17:04:32.026Z,7.91
2023-03-27T17:07:41.918Z,7.80
2023-03-27T17:10:48.287Z,7.85
2023-03-27T17:13:54.778Z,7.90
2023-03-27T17:17:01.315Z,7.66
2023-03-27T17:20:08.838Z,7.64
2023-03-27T17:23:17.181Z,7.61
2023-03-27T17:26:25.254Z,7.47
2023-03-27T17:29:31.644Z,7.51
2023-03-27T17:32:37.793Z,7.41
2023-03-27T17:35:44.155Z,7.37
2023-03-27T17:38:52.069Z,7.24
2023-03-27T17:42:01.163Z,7.06
2023-03-27T17:45:07.831Z,7.15
2023-03-27T17:48:14.653Z,7.04
2023-03-27T17:51:21.649Z,6.97
2023-03-27T17:54:29.200Z,7.02
2023-03-27T17:57:38.025Z,7.09
2023-03-27T18:00:44.693Z,6.92
2023-03-27T18:03:51.706Z,6.89
2023-03-27T18:06:58.330Z,6.89
2023-03-27T18:10:08.591Z,6.47
2023-03-27T18:13:14.871Z,6.58
2023-03-27T18:16:22.298Z,6.40
2023-03-27T18:19:28.656Z,6.63
2023-03-27T18:22:35.529Z,6.53
2023-03-27T18:25:43.275Z,6.62
2023-03-27T18:28:49.599Z,6.66
2023-03-27T18:31:55.512Z,6.48
2023-03-27T18:35:01.694Z,6.21
2023-03-27T18:38:08.008Z,6.35
2023-03-27T18:41:15.710Z,5.78
2023-03-27T18:44:22.713Z,6.46
2023-03-27T18:47:28.950Z,6.16
2023-03-27T18:50:35.897Z,6.05
2023-03-27T18:53:42.244Z,6.24
2023-03-27T18:56:52.219Z,6.22
2023-03-27T18:59:58.549Z,6.46
2023-03-27T19:03:04.808Z,6.20
2023-03-27T19:06:13.233Z,6.47
2023-03-27T19:09:23.350Z,6.19
2023-03-27T19:12:37.023Z,5.91
2023-03-27T19:15:43.330Z,6.08
2023-03-27T19:18:49.581Z,6.06
2023-03-27T19:21:56.366Z,5.91
2023-03-27T19:25:02.717Z,5.88
2023-03-27T19:28:10.260Z,5.56
2023-03-27T19:31:17.023Z,5.71
2023-03-27T19:34:32.620Z,6.17
2023-03-27T19:37:46.665Z,6.46
2023-03-27T19:40:52.685Z,5.78
2023-03-27T19:44:00.693Z,6.13
2023-03-27T19:47:07.706Z,6.21
2023-03-27T19:50:14.734Z,6.23
2023-03-27T19:53:21.036Z,6.38
2023-03-27T19:56:27.711Z,6.37
2023-03-27T19:59:35.346Z,6.54
2023-03-27T20:02:42.160Z,6.42
2023-03-27T20:05:50.757Z,6.23
2023-03-27T20:09:00.730Z,6.45
2023-03-27T20:12:07.712Z,6.00
2023-03-27T20:15:15.296Z,6.35
2023-03-27T20:18:22.320Z,6.23
2023-03-27T20:21:28.612Z,6.23
2023-03-27T20:24:35.174Z,6.28
2023-03-27T20:27:41.861Z,6.46
2023-03-27T20:30:49.894Z,6.15
2023-03-27T20:33:56.192Z,6.04
2023-03-27T20:37:03.820Z,6.31
2023-03-27T20:40:13.017Z,5.86
2023-03-27T20:43:19.676Z,6.23
2023-03-27T20:46:30.587Z,6.06
2023-03-27T20:49:41.262Z,6.29
2023-03-27T20:52:50.143Z,6.23
2023-03-27T20:56:00.508Z,5.91
2023-03-27T20:59:07.741Z,6.40
2023-03-27T21:02:18.090Z,5.90
2023-03-27T21:05:24.351Z,6.13
2023-03-27T21:08:31.647Z,6.21
2023-03-27T21:11:38.108Z,5.90
2023-03-27T21:14:44.472Z,6.20
2023-03-27T21:17:52.261Z,6.42
2023-03-27T21:20:58.983Z,6.48
2023-03-27T21:24:06.134Z,5.68
2023-03-27T21:27:12.767Z,6.48
2023-03-27T21:30:19.325Z,5.59
2023-03-27T21:33:27.085Z,5.55
2023-03-27T21:36:33.930Z,5.92
2023-03-27T21:39:40.419Z,5.92
2023-03-27T21:42:46.433Z,6.20
2023-03-27T21:45:53.178Z,6.43
2023-03-27T21:49:00.730Z,6.38
2023-03-27T21:52:07.310Z,6.45
2023-03-27T21:55:13.830Z,6.25
2023-03-27T21:58:20.294Z,6.45
2023-03-27T22:01:27.245Z,6.47
2023-03-27T22:04:35.171Z,6.54
2023-03-27T22:07:42.004Z,6.84
2023-03-27T22:10:48.418Z,6.87
2023-03-27T22:13:54.955Z,6.71
2023-03-27T22:17:01.228Z,6.86
2023-03-27T22:20:10.005Z,7.02
2023-03-27T22:23:16.502Z,6.43
2023-03-27T22:26:26.798Z,6.55
2023-03-27T22:29:34.053Z,6.16
2023-03-27T22:32:41.919Z,6.25
2023-03-27T22:35:52.890Z,6.43
2023-03-27T22:38:59.178Z,6.44
2023-03-27T22:42:05.518Z,6.60
2023-03-27T22:45:12.292Z,6.58
2023-03-27T22:48:18.764Z,6.58
2023-03-27T22:51:28.914Z,6.47
2023-03-27T22:54:35.229Z,6.57
2023-03-27T22:57:41.532Z,6.33
2023-03-27T23:00:53.757Z,6.11
2023-03-27T23:03:59.803Z,6.09
2023-03-27T23:07:07.562Z,6.15
2023-03-27T23:10:13.946Z,6.27
2023-03-27T23:13:20.004Z,6.46
2023-03-27T23:16:26.353Z,6.35
2023-03-27T23:19:32.581Z,6.58
2023-03-27T23:22:40.535Z,6.57
2023-03-27T23:25:46.918Z,6.57
2023-03-27T23:28:53.352Z,6.65
2023-03-27T23:31:59.662Z,6.58
2023-03-27T23:35:07.395Z,6.50
2023-03-27T23:38:15.154Z,6.55
2023-03-27T23:41:21.786Z,6.68
2023-03-27T23:44:28.220Z,6.54
2023-03-27T23:47:36.977Z,6.41
2023-03-27T23:50:43.564Z,6.18
2023-03-27T23:53:51.357Z,5.99
2023-03-27T23:56:57.913Z,6.27
